sensor_id;sensor_type;location;lat;lon;timestamp;P1;durP1;ratioP1;P2;durP2;ratioP2
67227;SDS011;54139;42.616;23.748;2023-04-28T00:01:05;7.53;;;4.45;;
67227;SDS011;54139;42.616;23.748;2023-04-28T00:03:30;7.55;;;4.50;;
67227;SDS011;54139;42.616;23.748;2023-04-28T00:05:56;5.15;;;4.65;;
67227;SDS011;54139;42.616;23.748;2023-04-28T00:08:21;5.90;;;4.40;;
67227;SDS011;54139;42.616;23.748;2023-04-28T00:10:49;5.70;;;5.20;;
67227;SDS011;54139;42.616;23.748;2023-04-28T00:13:15;7.63;;;5.20;;
67227;SDS011;54139;42.616;23.748;2023-04-28T00:15:40;7.78;;;5.85;;
67227;SDS011;54139;42.616;23.748;2023-04-28T00:18:05;6.78;;;6.07;;
67227;SDS011;54139;42.616;23.748;2023-04-28T00:20:31;8.13;;;6.18;;
67227;SDS011;54139;42.616;23.748;2023-04-28T00:22:56;8.23;;;6.25;;
67227;SDS011;54139;42.616;23.748;2023-04-28T00:25:21;7.75;;;7.05;;
67227;SDS011;54139;42.616;23.748;2023-04-28T00:27:47;6.35;;;5.72;;
67227;SDS011;54139;42.616;23.748;2023-04-28T00:30:12;7.47;;;5.63;;
67227;SDS011;54139;42.616;23.748;2023-04-28T00:32:37;8.77;;;5.95;;
67227;SDS011;54139;42.616;23.748;2023-04-28T00:35:03;9.40;;;5.22;;
67227;SDS011;54139;42.616;23.748;2023-04-28T00:37:28;6.72;;;6.13;;
67227;SDS011;54139;42.616;23.748;2023-04-28T00:39:54;6.22;;;5.63;;
67227;SDS011;54139;42.616;23.748;2023-04-28T00:42:19;7.03;;;5.82;;
67227;SDS011;54139;42.616;23.748;2023-04-28T00:44:45;5.38;;;4.88;;
67227;SDS011;54139;42.616;23.748;2023-04-28T00:47:10;6.82;;;5.25;;
67227;SDS011;54139;42.616;23.748;2023-04-28T00:49:36;6.72;;;6.05;;
67227;SDS011;54139;42.616;23.748;2023-04-28T00:52:03;7.50;;;5.20;;
67227;SDS011;54139;42.616;23.748;2023-04-28T00:54:29;6.18;;;5.15;;
67227;SDS011;54139;42.616;23.748;2023-04-28T00:56:54;5.03;;;4.53;;
67227;SDS011;54139;42.616;23.748;2023-04-28T00:59:20;6.70;;;4.70;;
67227;SDS011;54139;42.616;23.748;2023-04-28T01:01:45;6.25;;;5.10;;
67227;SDS011;54139;42.616;23.748;2023-04-28T01:04:10;6.22;;;5.43;;
67227;SDS011;54139;42.616;23.748;2023-04-28T01:06:36;7.40;;;5.43;;
67227;SDS011;54139;42.616;23.748;2023-04-28T01:09:02;7.95;;;4.93;;
67227;SDS011;54139;42.616;23.748;2023-04-28T01:11:27;5.93;;;5.43;;
67227;SDS011;54139;42.616;23.748;2023-04-28T01:13:52;7.90;;;5.35;;
67227;SDS011;54139;42.616;23.748;2023-04-28T01:16:17;12.52;;;5.50;;
67227;SDS011;54139;42.616;23.748;2023-04-28T01:18:45;5.40;;;4.90;;
67227;SDS011;54139;42.616;23.748;2023-04-28T01:21:11;6.57;;;4.63;;
67227;SDS011;54139;42.616;23.748;2023-04-28T01:23:36;6.72;;;5.28;;
67227;SDS011;54139;42.616;23.748;2023-04-28T01:26:02;7.32;;;5.00;;
67227;SDS011;54139;42.616;23.748;2023-04-28T01:28:27;4.65;;;4.20;;
67227;SDS011;54139;42.616;23.748;2023-04-28T01:30:52;7.43;;;4.90;;
67227;SDS011;54139;42.616;23.748;2023-04-28T01:33:19;7.60;;;5.22;;
67227;SDS011;54139;42.616;23.748;2023-04-28T01:35:44;6.28;;;5.72;;
67227;SDS011;54139;42.616;23.748;2023-04-28T01:38:10;8.75;;;5.60;;
67227;SDS011;54139;42.616;23.748;2023-04-28T01:40:35;9.30;;;5.90;;
67227;SDS011;54139;42.616;23.748;2023-04-28T01:43:00;6.38;;;5.05;;
67227;SDS011;54139;42.616;23.748;2023-04-28T01:45:25;5.47;;;4.90;;
67227;SDS011;54139;42.616;23.748;2023-04-28T01:47:51;6.20;;;5.20;;
67227;SDS011;54139;42.616;23.748;2023-04-28T01:50:16;6.32;;;5.72;;
67227;SDS011;54139;42.616;23.748;2023-04-28T01:52:41;7.65;;;5.28;;
67227;SDS011;54139;42.616;23.748;2023-04-28T01:55:07;10.18;;;5.82;;
67227;SDS011;54139;42.616;23.748;2023-04-28T01:57:32;6.53;;;5.90;;
67227;SDS011;54139;42.616;23.748;2023-04-28T01:59:59;6.20;;;5.53;;
67227;SDS011;54139;42.616;23.748;2023-04-28T02:02:25;8.18;;;5.85;;
67227;SDS011;54139;42.616;23.748;2023-04-28T02:10:00;10.43;;;6.32;;
67227;SDS011;54139;42.616;23.748;2023-04-28T02:12:25;14.15;;;6.63;;
67227;SDS011;54139;42.616;23.748;2023-04-28T02:14:51;6.97;;;4.93;;
67227;SDS011;54139;42.616;23.748;2023-04-28T02:17:16;7.10;;;5.85;;
67227;SDS011;54139;42.616;23.748;2023-04-28T02:19:41;8.18;;;6.20;;
67227;SDS011;54139;42.616;23.748;2023-04-28T02:22:07;11.02;;;6.90;;
67227;SDS011;54139;42.616;23.748;2023-04-28T02:24:35;8.40;;;6.28;;
67227;SDS011;54139;42.616;23.748;2023-04-28T02:27:02;7.53;;;5.72;;
67227;SDS011;54139;42.616;23.748;2023-04-28T02:29:27;10.00;;;5.72;;
67227;SDS011;54139;42.616;23.748;2023-04-28T02:31:54;5.95;;;5.38;;
67227;SDS011;54139;42.616;23.748;2023-04-28T02:34:19;6.60;;;5.78;;
67227;SDS011;54139;42.616;23.748;2023-04-28T02:36:45;6.82;;;5.72;;
67227;SDS011;54139;42.616;23.748;2023-04-28T02:39:12;6.82;;;6.10;;
67227;SDS011;54139;42.616;23.748;2023-04-28T02:41:37;9.07;;;6.18;;
67227;SDS011;54139;42.616;23.748;2023-04-28T02:44:03;6.97;;;5.60;;
67227;SDS011;54139;42.616;23.748;2023-04-28T02:46:28;7.50;;;5.85;;
67227;SDS011;54139;42.616;23.748;2023-04-28T02:48:53;6.72;;;6.07;;
67227;SDS011;54139;42.616;23.748;2023-04-28T02:51:19;6.68;;;5.13;;
67227;SDS011;54139;42.616;23.748;2023-04-28T02:56:19;8.43;;;5.80;;
67227;SDS011;54139;42.616;23.748;2023-04-28T02:58:45;6.57;;;5.63;;
67227;SDS011;54139;42.616;23.748;2023-04-28T03:01:10;9.30;;;5.90;;
67227;SDS011;54139;42.616;23.748;2023-04-28T03:03:36;7.20;;;5.97;;
67227;SDS011;54139;42.616;23.748;2023-04-28T03:06:01;7.72;;;6.10;;
67227;SDS011;54139;42.616;23.748;2023-04-28T03:08:26;7.93;;;5.55;;
67227;SDS011;54139;42.616;23.748;2023-04-28T03:10:52;6.40;;;5.80;;
67227;SDS011;54139;42.616;23.748;2023-04-28T03:13:17;6.45;;;5.85;;
67227;SDS011;54139;42.616;23.748;2023-04-28T03:15:42;7.13;;;6.13;;
67227;SDS011;54139;42.616;23.748;2023-04-28T03:18:07;10.35;;;6.75;;
67227;SDS011;54139;42.616;23.748;2023-04-28T03:20:33;14.88;;;10.70;;
67227;SDS011;54139;42.616;23.748;2023-04-28T03:22:58;26.58;;;17.85;;
67227;SDS011;54139;42.616;23.748;2023-04-28T03:25:23;11.55;;;7.70;;
67227;SDS011;54139;42.616;23.748;2023-04-28T03:27:49;11.60;;;5.50;;
67227;SDS011;54139;42.616;23.748;2023-04-28T03:30:14;5.90;;;5.38;;
67227;SDS011;54139;42.616;23.748;2023-04-28T03:32:39;9.63;;;5.25;;
67227;SDS011;54139;42.616;23.748;2023-04-28T03:35:05;19.83;;;14.85;;
67227;SDS011;54139;42.616;23.748;2023-04-28T03:37:30;17.60;;;11.68;;
67227;SDS011;54139;42.616;23.748;2023-04-28T03:39:55;8.10;;;6.00;;
67227;SDS011;54139;42.616;23.748;2023-04-28T03:42:21;7.40;;;5.25;;
67227;SDS011;54139;42.616;23.748;2023-04-28T03:44:46;5.63;;;4.38;;
67227;SDS011;54139;42.616;23.748;2023-04-28T03:47:11;7.68;;;4.97;;
67227;SDS011;54139;42.616;23.748;2023-04-28T03:49:37;6.53;;;4.95;;
67227;SDS011;54139;42.616;23.748;2023-04-28T03:52:02;15.00;;;8.73;;
67227;SDS011;54139;42.616;23.748;2023-04-28T03:54:28;27.20;;;21.92;;
67227;SDS011;54139;42.616;23.748;2023-04-28T03:56:53;29.90;;;22.40;;
67227;SDS011;54139;42.616;23.748;2023-04-28T03:59:18;29.58;;;18.27;;
67227;SDS011;54139;42.616;23.748;2023-04-28T04:01:44;7.07;;;6.45;;
67227;SDS011;54139;42.616;23.748;2023-04-28T04:04:09;7.03;;;6.00;;
67227;SDS011;54139;42.616;23.748;2023-04-28T04:06:34;5.63;;;4.53;;
67227;SDS011;54139;42.616;23.748;2023-04-28T04:09:00;4.22;;;3.80;;
67227;SDS011;54139;42.616;23.748;2023-04-28T04:11:25;5.43;;;3.63;;
67227;SDS011;54139;42.616;23.748;2023-04-28T04:13:50;3.97;;;3.55;;
67227;SDS011;54139;42.616;23.748;2023-04-28T04:16:15;4.28;;;2.90;;
67227;SDS011;54139;42.616;23.748;2023-04-28T04:18:41;4.10;;;3.45;;
67227;SDS011;54139;42.616;23.748;2023-04-28T04:21:06;7.78;;;4.95;;
67227;SDS011;54139;42.616;23.748;2023-04-28T04:23:31;4.70;;;4.07;;
67227;SDS011;54139;42.616;23.748;2023-04-28T04:25:57;7.57;;;5.37;;
67227;SDS011;54139;42.616;23.748;2023-04-28T04:28:22;22.33;;;9.10;;
67227;SDS011;54139;42.616;23.748;2023-04-28T04:30:47;25.07;;;14.43;;
67227;SDS011;54139;42.616;23.748;2023-04-28T04:33:12;17.27;;;14.05;;
67227;SDS011;54139;42.616;23.748;2023-04-28T04:38:13;12.98;;;10.98;;
67227;SDS011;54139;42.616;23.748;2023-04-28T04:43:19;12.70;;;10.55;;
67227;SDS011;54139;42.616;23.748;2023-04-28T04:45:45;16.83;;;12.57;;
67227;SDS011;54139;42.616;23.748;2023-04-28T04:48:10;16.70;;;15.00;;
67227;SDS011;54139;42.616;23.748;2023-04-28T04:50:35;7.30;;;6.60;;
67227;SDS011;54139;42.616;23.748;2023-04-28T04:53:01;5.60;;;5.20;;
67227;SDS011;54139;42.616;23.748;2023-04-28T04:55:26;5.57;;;4.07;;
67227;SDS011;54139;42.616;23.748;2023-04-28T04:57:51;7.45;;;4.05;;
67227;SDS011;54139;42.616;23.748;2023-04-28T05:00:17;6.95;;;3.63;;
67227;SDS011;54139;42.616;23.748;2023-04-28T05:02:42;5.32;;;3.20;;
67227;SDS011;54139;42.616;23.748;2023-04-28T05:05:07;4.70;;;3.58;;
67227;SDS011;54139;42.616;23.748;2023-04-28T05:07:33;10.45;;;4.47;;
67227;SDS011;54139;42.616;23.748;2023-04-28T05:09:59;5.78;;;4.20;;
67227;SDS011;54139;42.616;23.748;2023-04-28T05:12:24;4.85;;;4.03;;
67227;SDS011;54139;42.616;23.748;2023-04-28T05:14:49;5.87;;;3.67;;
67227;SDS011;54139;42.616;23.748;2023-04-28T05:17:15;4.50;;;3.77;;
67227;SDS011;54139;42.616;23.748;2023-04-28T05:19:40;3.40;;;3.10;;
67227;SDS011;54139;42.616;23.748;2023-04-28T05:22:05;4.93;;;3.00;;
67227;SDS011;54139;42.616;23.748;2023-04-28T05:24:31;4.95;;;3.30;;
67227;SDS011;54139;42.616;23.748;2023-04-28T05:26:59;10.63;;;3.83;;
67227;SDS011;54139;42.616;23.748;2023-04-28T05:29:25;4.55;;;3.20;;
67227;SDS011;54139;42.616;23.748;2023-04-28T05:31:50;5.50;;;3.00;;
67227;SDS011;54139;42.616;23.748;2023-04-28T05:34:16;4.27;;;3.40;;
67227;SDS011;54139;42.616;23.748;2023-04-28T05:36:41;4.50;;;3.20;;
67227;SDS011;54139;42.616;23.748;2023-04-28T05:39:06;4.43;;;3.10;;
67227;SDS011;54139;42.616;23.748;2023-04-28T05:41:33;4.27;;;3.00;;
67227;SDS011;54139;42.616;23.748;2023-04-28T05:43:59;5.70;;;3.22;;
67227;SDS011;54139;42.616;23.748;2023-04-28T05:46:24;3.43;;;3.03;;
67227;SDS011;54139;42.616;23.748;2023-04-28T05:48:49;6.03;;;3.70;;
67227;SDS011;54139;42.616;23.748;2023-04-28T05:51:15;4.23;;;2.70;;
67227;SDS011;54139;42.616;23.748;2023-04-28T05:53:40;4.97;;;3.13;;
67227;SDS011;54139;42.616;23.748;2023-04-28T05:56:05;7.32;;;3.03;;
67227;SDS011;54139;42.616;23.748;2023-04-28T05:58:31;3.42;;;3.13;;
67227;SDS011;54139;42.616;23.748;2023-04-28T06:00:57;3.08;;;2.80;;
67227;SDS011;54139;42.616;23.748;2023-04-28T06:03:22;5.35;;;3.25;;
67227;SDS011;54139;42.616;23.748;2023-04-28T06:05:47;6.53;;;3.67;;
67227;SDS011;54139;42.616;23.748;2023-04-28T06:08:13;3.60;;;2.93;;
67227;SDS011;54139;42.616;23.748;2023-04-28T06:10:38;4.20;;;3.37;;
67227;SDS011;54139;42.616;23.748;2023-04-28T06:13:03;4.43;;;3.50;;
67227;SDS011;54139;42.616;23.748;2023-04-28T06:15:30;5.50;;;3.30;;
67227;SDS011;54139;42.616;23.748;2023-04-28T06:17:56;5.53;;;3.35;;
67227;SDS011;54139;42.616;23.748;2023-04-28T06:20:23;6.22;;;3.80;;
67227;SDS011;54139;42.616;23.748;2023-04-28T06:22:48;4.45;;;3.58;;
67227;SDS011;54139;42.616;23.748;2023-04-28T06:25:13;5.93;;;4.30;;
67227;SDS011;54139;42.616;23.748;2023-04-28T06:27:38;6.00;;;4.20;;
67227;SDS011;54139;42.616;23.748;2023-04-28T06:30:04;11.45;;;4.53;;
67227;SDS011;54139;42.616;23.748;2023-04-28T06:32:29;8.02;;;4.20;;
67227;SDS011;54139;42.616;23.748;2023-04-28T06:34:55;4.73;;;4.13;;
67227;SDS011;54139;42.616;23.748;2023-04-28T06:37:20;10.87;;;4.30;;
67227;SDS011;54139;42.616;23.748;2023-04-28T06:39:45;4.30;;;3.88;;
67227;SDS011;54139;42.616;23.748;2023-04-28T06:42:11;4.00;;;3.50;;
67227;SDS011;54139;42.616;23.748;2023-04-28T06:44:36;9.13;;;3.83;;
67227;SDS011;54139;42.616;23.748;2023-04-28T06:47:01;6.25;;;3.60;;
67227;SDS011;54139;42.616;23.748;2023-04-28T06:49:26;7.73;;;4.03;;
67227;SDS011;54139;42.616;23.748;2023-04-28T06:51:52;6.40;;;3.47;;
67227;SDS011;54139;42.616;23.748;2023-04-28T06:54:17;6.50;;;3.30;;
67227;SDS011;54139;42.616;23.748;2023-04-28T06:56:42;8.93;;;3.60;;
67227;SDS011;54139;42.616;23.748;2023-04-28T06:59:08;5.47;;;3.13;;
67227;SDS011;54139;42.616;23.748;2023-04-28T07:01:33;6.10;;;3.20;;
67227;SDS011;54139;42.616;23.748;2023-04-28T07:03:58;5.23;;;3.07;;
67227;SDS011;54139;42.616;23.748;2023-04-28T07:06:24;5.90;;;2.47;;
67227;SDS011;54139;42.616;23.748;2023-04-28T07:08:51;4.68;;;3.25;;
67227;SDS011;54139;42.616;23.748;2023-04-28T07:11:16;5.72;;;2.95;;
67227;SDS011;54139;42.616;23.748;2023-04-28T07:13:42;7.93;;;3.80;;
67227;SDS011;54139;42.616;23.748;2023-04-28T07:16:07;5.38;;;2.97;;
67227;SDS011;54139;42.616;23.748;2023-04-28T07:18:34;4.70;;;3.08;;
67227;SDS011;54139;42.616;23.748;2023-04-28T07:20:59;3.73;;;2.70;;
67227;SDS011;54139;42.616;23.748;2023-04-28T07:23:25;5.50;;;2.75;;
67227;SDS011;54139;42.616;23.748;2023-04-28T07:25:50;5.23;;;3.03;;
67227;SDS011;54139;42.616;23.748;2023-04-28T07:28:15;5.35;;;2.78;;
67227;SDS011;54139;42.616;23.748;2023-04-28T07:30:41;5.65;;;3.08;;
67227;SDS011;54139;42.616;23.748;2023-04-28T07:33:06;3.65;;;2.75;;
67227;SDS011;54139;42.616;23.748;2023-04-28T07:35:31;7.88;;;2.92;;
67227;SDS011;54139;42.616;23.748;2023-04-28T07:38:06;6.97;;;2.67;;
67227;SDS011;54139;42.616;23.748;2023-04-28T07:40:31;4.28;;;2.50;;
67227;SDS011;54139;42.616;23.748;2023-04-28T07:42:57;8.30;;;3.10;;
67227;SDS011;54139;42.616;23.748;2023-04-28T07:45:22;7.47;;;2.55;;
67227;SDS011;54139;42.616;23.748;2023-04-28T07:47:47;7.30;;;3.07;;
67227;SDS011;54139;42.616;23.748;2023-04-28T07:50:12;8.75;;;2.70;;
67227;SDS011;54139;42.616;23.748;2023-04-28T07:52:38;9.55;;;2.25;;
67227;SDS011;54139;42.616;23.748;2023-04-28T07:55:03;3.53;;;2.03;;
67227;SDS011;54139;42.616;23.748;2023-04-28T07:57:29;5.85;;;2.63;;
67227;SDS011;54139;42.616;23.748;2023-04-28T07:59:54;4.65;;;2.38;;
67227;SDS011;54139;42.616;23.748;2023-04-28T08:02:20;3.33;;;2.30;;
67227;SDS011;54139;42.616;23.748;2023-04-28T08:04:45;2.58;;;2.08;;
67227;SDS011;54139;42.616;23.748;2023-04-28T08:07:11;7.13;;;2.33;;
67227;SDS011;54139;42.616;23.748;2023-04-28T08:09:37;3.30;;;1.95;;
67227;SDS011;54139;42.616;23.748;2023-04-28T08:12:04;4.90;;;2.45;;
67227;SDS011;54139;42.616;23.748;2023-04-28T08:14:29;7.72;;;2.85;;
67227;SDS011;54139;42.616;23.748;2023-04-28T08:16:54;4.83;;;2.43;;
67227;SDS011;54139;42.616;23.748;2023-04-28T08:19:19;4.63;;;2.42;;
67227;SDS011;54139;42.616;23.748;2023-04-28T08:21:45;6.47;;;2.00;;
67227;SDS011;54139;42.616;23.748;2023-04-28T08:24:11;2.95;;;1.80;;
67227;SDS011;54139;42.616;23.748;2023-04-28T08:26:36;2.72;;;1.88;;
67227;SDS011;54139;42.616;23.748;2023-04-28T08:29:02;3.13;;;2.10;;
67227;SDS011;54139;42.616;23.748;2023-04-28T08:31:28;4.90;;;2.10;;
67227;SDS011;54139;42.616;23.748;2023-04-28T08:33:53;4.32;;;2.00;;
67227;SDS011;54139;42.616;23.748;2023-04-28T08:36:18;3.17;;;2.57;;
67227;SDS011;54139;42.616;23.748;2023-04-28T08:38:43;4.70;;;1.80;;
67227;SDS011;54139;42.616;23.748;2023-04-28T08:41:09;2.60;;;1.75;;
67227;SDS011;54139;42.616;23.748;2023-04-28T08:43:36;4.97;;;1.80;;
67227;SDS011;54139;42.616;23.748;2023-04-28T08:46:05;4.55;;;1.88;;
67227;SDS011;54139;42.616;23.748;2023-04-28T08:48:33;2.95;;;1.88;;
67227;SDS011;54139;42.616;23.748;2023-04-28T08:51:01;3.65;;;1.83;;
67227;SDS011;54139;42.616;23.748;2023-04-28T08:53:27;4.45;;;1.90;;
67227;SDS011;54139;42.616;23.748;2023-04-28T08:55:56;3.53;;;1.98;;
67227;SDS011;54139;42.616;23.748;2023-04-28T08:58:25;2.63;;;2.03;;
67227;SDS011;54139;42.616;23.748;2023-04-28T09:00:50;4.25;;;2.00;;
67227;SDS011;54139;42.616;23.748;2023-04-28T09:03:16;3.83;;;1.90;;
67227;SDS011;54139;42.616;23.748;2023-04-28T09:05:42;5.88;;;1.70;;
67227;SDS011;54139;42.616;23.748;2023-04-28T09:08:07;5.05;;;2.03;;
67227;SDS011;54139;42.616;23.748;2023-04-28T09:10:33;2.60;;;1.73;;
67227;SDS011;54139;42.616;23.748;2023-04-28T09:12:58;3.35;;;2.20;;
67227;SDS011;54139;42.616;23.748;2023-04-28T09:15:24;4.45;;;1.90;;
67227;SDS011;54139;42.616;23.748;2023-04-28T09:17:50;6.13;;;1.90;;
67227;SDS011;54139;42.616;23.748;2023-04-28T09:20:19;3.35;;;1.83;;
67227;SDS011;54139;42.616;23.748;2023-04-28T09:25:10;3.85;;;2.03;;
67227;SDS011;54139;42.616;23.748;2023-04-28T09:27:36;5.78;;;1.88;;
67227;SDS011;54139;42.616;23.748;2023-04-28T09:30:02;5.00;;;1.70;;
67227;SDS011;54139;42.616;23.748;2023-04-28T09:32:28;6.32;;;1.60;;
67227;SDS011;54139;42.616;23.748;2023-04-28T09:34:54;5.10;;;2.13;;
67227;SDS011;54139;42.616;23.748;2023-04-28T09:37:24;7.25;;;1.50;;
67227;SDS011;54139;42.616;23.748;2023-04-28T09:39:51;6.13;;;1.80;;
67227;SDS011;54139;42.616;23.748;2023-04-28T09:44:58;3.28;;;1.80;;
67227;SDS011;54139;42.616;23.748;2023-04-28T09:47:24;1.95;;;1.40;;
67227;SDS011;54139;42.616;23.748;2023-04-28T09:49:56;2.97;;;1.30;;
67227;SDS011;54139;42.616;23.748;2023-04-28T09:52:22;12.10;;;3.20;;
67227;SDS011;54139;42.616;23.748;2023-04-28T09:54:52;5.03;;;1.88;;
67227;SDS011;54139;42.616;23.748;2023-04-28T09:57:17;4.35;;;1.42;;
67227;SDS011;54139;42.616;23.748;2023-04-28T09:59:45;3.55;;;1.73;;
67227;SDS011;54139;42.616;23.748;2023-04-28T10:02:11;1.95;;;1.38;;
67227;SDS011;54139;42.616;23.748;2023-04-28T10:04:38;2.63;;;1.90;;
67227;SDS011;54139;42.616;23.748;2023-04-28T10:07:04;4.03;;;1.95;;
67227;SDS011;54139;42.616;23.748;2023-04-28T10:09:29;3.03;;;1.55;;
67227;SDS011;54139;42.616;23.748;2023-04-28T10:11:55;2.92;;;2.15;;
67227;SDS011;54139;42.616;23.748;2023-04-28T10:14:21;3.20;;;1.52;;
67227;SDS011;54139;42.616;23.748;2023-04-28T10:16:48;3.20;;;1.65;;
67227;SDS011;54139;42.616;23.748;2023-04-28T10:19:16;2.70;;;1.70;;
67227;SDS011;54139;42.616;23.748;2023-04-28T10:21:42;1.92;;;1.40;;
67227;SDS011;54139;42.616;23.748;2023-04-28T10:24:14;2.72;;;1.85;;
67227;SDS011;54139;42.616;23.748;2023-04-28T10:29:45;6.72;;;1.80;;
67227;SDS011;54139;42.616;23.748;2023-04-28T10:32:21;3.70;;;1.75;;
67227;SDS011;54139;42.616;23.748;2023-04-28T10:34:47;3.38;;;1.67;;
67227;SDS011;54139;42.616;23.748;2023-04-28T10:37:13;4.45;;;1.52;;
67227;SDS011;54139;42.616;23.748;2023-04-28T10:39:39;4.13;;;1.65;;
67227;SDS011;54139;42.616;23.748;2023-04-28T10:42:05;2.65;;;1.73;;
67227;SDS011;54139;42.616;23.748;2023-04-28T10:44:50;4.07;;;1.40;;
67227;SDS011;54139;42.616;23.748;2023-04-28T10:47:15;2.45;;;1.50;;
67227;SDS011;54139;42.616;23.748;2023-04-28T11:00:37;3.25;;;1.75;;
67227;SDS011;54139;42.616;23.748;2023-04-28T11:03:02;2.47;;;1.40;;
67227;SDS011;54139;42.616;23.748;2023-04-28T11:05:27;2.40;;;1.52;;
67227;SDS011;54139;42.616;23.748;2023-04-28T11:13:24;5.15;;;1.45;;
67227;SDS011;54139;42.616;23.748;2023-04-28T11:16:01;2.33;;;1.92;;
67227;SDS011;54139;42.616;23.748;2023-04-28T11:18:26;3.63;;;1.65;;
67227;SDS011;54139;42.616;23.748;2023-04-28T11:20:52;3.35;;;1.52;;
67227;SDS011;54139;42.616;23.748;2023-04-28T11:23:18;3.08;;;1.48;;
67227;SDS011;54139;42.616;23.748;2023-04-28T11:25:53;3.17;;;1.40;;
67227;SDS011;54139;42.616;23.748;2023-04-28T11:28:19;5.88;;;2.13;;
67227;SDS011;54139;42.616;23.748;2023-04-28T11:30:45;3.00;;;1.65;;
67227;SDS011;54139;42.616;23.748;2023-04-28T11:33:10;2.05;;;1.40;;
67227;SDS011;54139;42.616;23.748;2023-04-28T11:35:39;3.67;;;1.90;;
67227;SDS011;54139;42.616;23.748;2023-04-28T11:38:05;5.50;;;1.60;;
67227;SDS011;54139;42.616;23.748;2023-04-28T11:40:30;6.03;;;1.83;;
67227;SDS011;54139;42.616;23.748;2023-04-28T11:42:56;4.18;;;1.73;;
67227;SDS011;54139;42.616;23.748;2023-04-28T11:45:23;4.80;;;1.85;;
67227;SDS011;54139;42.616;23.748;2023-04-28T11:47:49;2.67;;;1.40;;
67227;SDS011;54139;42.616;23.748;2023-04-28T11:50:14;2.00;;;1.45;;
67227;SDS011;54139;42.616;23.748;2023-04-28T11:52:49;1.67;;;1.33;;
67227;SDS011;54139;42.616;23.748;2023-04-28T11:55:15;3.45;;;1.80;;
67227;SDS011;54139;42.616;23.748;2023-04-28T11:57:41;4.40;;;1.77;;
67227;SDS011;54139;42.616;23.748;2023-04-28T12:00:13;2.60;;;1.48;;
67227;SDS011;54139;42.616;23.748;2023-04-28T12:02:43;5.80;;;1.60;;
67227;SDS011;54139;42.616;23.748;2023-04-28T12:05:08;3.60;;;1.70;;
67227;SDS011;54139;42.616;23.748;2023-04-28T12:07:41;3.67;;;1.60;;
67227;SDS011;54139;42.616;23.748;2023-04-28T12:10:14;3.67;;;1.42;;
67227;SDS011;54139;42.616;23.748;2023-04-28T12:12:43;5.68;;;1.90;;
67227;SDS011;54139;42.616;23.748;2023-04-28T12:15:08;4.10;;;1.40;;
67227;SDS011;54139;42.616;23.748;2023-04-28T12:20:00;2.92;;;1.77;;
67227;SDS011;54139;42.616;23.748;2023-04-28T12:22:26;2.20;;;1.67;;
67227;SDS011;54139;42.616;23.748;2023-04-28T12:25:04;1.92;;;1.35;;
67227;SDS011;54139;42.616;23.748;2023-04-28T12:29:56;6.28;;;1.50;;
67227;SDS011;54139;42.616;23.748;2023-04-28T12:32:38;3.13;;;1.60;;
67227;SDS011;54139;42.616;23.748;2023-04-28T12:35:04;4.93;;;1.70;;
67227;SDS011;54139;42.616;23.748;2023-04-28T12:37:30;2.15;;;1.50;;
67227;SDS011;54139;42.616;23.748;2023-04-28T12:39:55;3.15;;;1.50;;
67227;SDS011;54139;42.616;23.748;2023-04-28T12:42:21;4.10;;;1.63;;
67227;SDS011;54139;42.616;23.748;2023-04-28T12:44:47;4.20;;;1.40;;
67227;SDS011;54139;42.616;23.748;2023-04-28T12:47:13;2.90;;;1.40;;
67227;SDS011;54139;42.616;23.748;2023-04-28T12:49:39;2.28;;;1.45;;
67227;SDS011;54139;42.616;23.748;2023-04-28T12:52:05;2.83;;;1.30;;
67227;SDS011;54139;42.616;23.748;2023-04-28T12:54:31;5.15;;;2.47;;
67227;SDS011;54139;42.616;23.748;2023-04-28T12:56:57;3.10;;;1.63;;
67227;SDS011;54139;42.616;23.748;2023-04-28T12:59:22;6.18;;;1.40;;
67227;SDS011;54139;42.616;23.748;2023-04-28T13:01:48;3.25;;;1.60;;
67227;SDS011;54139;42.616;23.748;2023-04-28T13:04:14;5.55;;;1.67;;
67227;SDS011;54139;42.616;23.748;2023-04-28T13:06:39;2.80;;;1.30;;
67227;SDS011;54139;42.616;23.748;2023-04-28T13:09:07;2.75;;;1.60;;
67227;SDS011;54139;42.616;23.748;2023-04-28T13:11:33;3.47;;;1.63;;
67227;SDS011;54139;42.616;23.748;2023-04-28T13:13:59;1.88;;;1.30;;
67227;SDS011;54139;42.616;23.748;2023-04-28T13:16:24;6.25;;;1.63;;
67227;SDS011;54139;42.616;23.748;2023-04-28T13:18:52;2.58;;;1.17;;
67227;SDS011;54139;42.616;23.748;2023-04-28T13:21:18;2.80;;;1.40;;
67227;SDS011;54139;42.616;23.748;2023-04-28T13:23:43;3.03;;;1.52;;
67227;SDS011;54139;42.616;23.748;2023-04-28T13:26:08;2.53;;;1.27;;
67227;SDS011;54139;42.616;23.748;2023-04-28T13:28:34;4.67;;;1.77;;
67227;SDS011;54139;42.616;23.748;2023-04-28T13:31:00;5.10;;;1.40;;
67227;SDS011;54139;42.616;23.748;2023-04-28T13:33:25;4.63;;;1.48;;
67227;SDS011;54139;42.616;23.748;2023-04-28T13:38:20;4.05;;;1.80;;
67227;SDS011;54139;42.616;23.748;2023-04-28T13:40:46;4.50;;;2.10;;
67227;SDS011;54139;42.616;23.748;2023-04-28T13:43:12;6.90;;;2.00;;
67227;SDS011;54139;42.616;23.748;2023-04-28T13:45:37;8.50;;;1.60;;
67227;SDS011;54139;42.616;23.748;2023-04-28T13:48:02;2.90;;;1.40;;
67227;SDS011;54139;42.616;23.748;2023-04-28T13:50:28;2.35;;;1.95;;
67227;SDS011;54139;42.616;23.748;2023-04-28T13:52:53;5.22;;;1.55;;
67227;SDS011;54139;42.616;23.748;2023-04-28T13:55:18;3.28;;;1.40;;
67227;SDS011;54139;42.616;23.748;2023-04-28T13:57:51;3.35;;;1.50;;
67227;SDS011;54139;42.616;23.748;2023-04-28T14:00:16;3.85;;;1.70;;
67227;SDS011;54139;42.616;23.748;2023-04-28T14:02:43;3.22;;;1.40;;
67227;SDS011;54139;42.616;23.748;2023-04-28T14:05:08;3.45;;;1.63;;
67227;SDS011;54139;42.616;23.748;2023-04-28T14:07:34;3.80;;;1.42;;
67227;SDS011;54139;42.616;23.748;2023-04-28T14:09:59;2.95;;;1.33;;
67227;SDS011;54139;42.616;23.748;2023-04-28T14:12:24;2.70;;;1.30;;
67227;SDS011;54139;42.616;23.748;2023-04-28T14:14:50;3.55;;;1.45;;
67227;SDS011;54139;42.616;23.748;2023-04-28T14:17:16;3.33;;;1.57;;
67227;SDS011;54139;42.616;23.748;2023-04-28T14:19:41;2.45;;;1.40;;
67227;SDS011;54139;42.616;23.748;2023-04-28T14:22:08;5.18;;;1.20;;
67227;SDS011;54139;42.616;23.748;2023-04-28T14:24:33;8.70;;;1.80;;
67227;SDS011;54139;42.616;23.748;2023-04-28T14:26:58;2.85;;;1.70;;
67227;SDS011;54139;42.616;23.748;2023-04-28T14:29:24;2.40;;;1.40;;
67227;SDS011;54139;42.616;23.748;2023-04-28T14:31:49;4.00;;;1.60;;
67227;SDS011;54139;42.616;23.748;2023-04-28T14:34:14;3.42;;;1.60;;
67227;SDS011;54139;42.616;23.748;2023-04-28T14:36:40;4.77;;;1.50;;
67227;SDS011;54139;42.616;23.748;2023-04-28T14:39:06;6.30;;;1.45;;
67227;SDS011;54139;42.616;23.748;2023-04-28T14:41:31;1.90;;;1.45;;
67227;SDS011;54139;42.616;23.748;2023-04-28T14:43:56;2.67;;;1.60;;
67227;SDS011;54139;42.616;23.748;2023-04-28T14:46:22;1.98;;;1.27;;
67227;SDS011;54139;42.616;23.748;2023-04-28T14:48:48;9.38;;;1.45;;
67227;SDS011;54139;42.616;23.748;2023-04-28T14:51:13;9.15;;;2.40;;
67227;SDS011;54139;42.616;23.748;2023-04-28T14:53:39;6.50;;;1.60;;
67227;SDS011;54139;42.616;23.748;2023-04-28T14:56:05;4.50;;;1.40;;
67227;SDS011;54139;42.616;23.748;2023-04-28T14:58:30;2.67;;;1.30;;
67227;SDS011;54139;42.616;23.748;2023-04-28T15:00:55;4.88;;;1.40;;
67227;SDS011;54139;42.616;23.748;2023-04-28T15:03:20;5.72;;;2.00;;
67227;SDS011;54139;42.616;23.748;2023-04-28T15:05:46;2.25;;;1.42;;
67227;SDS011;54139;42.616;23.748;2023-04-28T15:08:11;3.60;;;1.77;;
67227;SDS011;54139;42.616;23.748;2023-04-28T15:10:37;2.05;;;1.20;;